createdAt,value
2023-05-19T00:00:20.046Z,0
2023-05-19T00:01:36.217Z,0
2023-05-19T00:02:51.190Z,0
2023-05-19T00:04:07.384Z,0
2023-05-19T00:05:23.573Z,0
2023-05-19T00:06:39.993Z,0
2023-05-19T00:07:56.174Z,0
2023-05-19T00:09:12.363Z,0
2023-05-19T00:10:28.326Z,0
2023-05-19T00:11:44.734Z,0
2023-05-19T00:13:00.936Z,0
2023-05-19T00:14:16.870Z,0
2023-05-19T00:15:33.294Z,0
2023-05-19T00:16:49.246Z,0
2023-05-19T00:18:05.433Z,0
2023-05-19T00:19:20.881Z,0
2023-05-19T00:20:36.843Z,0
2023-05-19T00:21:53.250Z,0
2023-05-19T00:23:09.443Z,0
2023-05-19T00:24:25.617Z,0
2023-05-19T00:25:41.815Z,0
2023-05-19T00:26:57.992Z,0
2023-05-19T00:28:14.195Z,0
2023-05-19T00:29:30.150Z,0
2023-05-19T00:30:46.558Z,0
2023-05-19T00:32:02.759Z,0
2023-05-19T00:33:18.701Z,0
2023-05-19T00:34:35.122Z,0
2023-05-19T00:35:50.331Z,0
2023-05-19T00:37:06.518Z,0
2023-05-19T00:38:22.702Z,0
2023-05-19T00:39:38.879Z,0
2023-05-19T00:40:54.828Z,0
2023-05-19T00:42:11.022Z,0
2023-05-19T00:43:27.204Z,0
2023-05-19T00:44:43.406Z,0
2023-05-19T00:45:59.582Z,0
2023-05-19T00:47:16.015Z,0
2023-05-19T00:48:32.188Z,0
2023-05-19T00:49:48.385Z,0
2023-05-19T00:51:04.575Z,0
2023-05-19T00:52:19.536Z,0
2023-05-19T00:53:35.715Z,0
2023-05-19T00:54:52.150Z,0
2023-05-19T00:56:08.095Z,0
2023-05-19T00:57:24.519Z,0
2023-05-19T00:58:40.473Z,0
2023-05-19T00:59:56.892Z,0
2023-05-19T01:01:13.088Z,0
2023-05-19T01:02:29.272Z,0
2023-05-19T01:03:45.226Z,0
2023-05-19T01:05:01.640Z,0
2023-05-19T01:06:17.829Z,0
2023-05-19T01:07:33.786Z,0
2023-05-19T01:08:49.229Z,0
2023-05-19T01:10:05.419Z,0
2023-05-19T01:11:21.347Z,0
2023-05-19T01:12:37.783Z,0
2023-05-19T01:13:53.964Z,0
2023-05-19T01:15:10.156Z,0
2023-05-19T01:16:26.342Z,0
2023-05-19T01:17:42.524Z,0
2023-05-19T01:18:58.466Z,0
2023-05-19T01:20:14.671Z,0
2023-05-19T01:21:31.098Z,0
2023-05-19T01:22:47.030Z,0
2023-05-19T01:24:03.460Z,0
2023-05-19T01:25:18.680Z,0
2023-05-19T01:26:34.857Z,0
2023-05-19T01:27:50.805Z,0
2023-05-19T01:29:07.234Z,0
2023-05-19T01:30:23.177Z,0
2023-05-19T01:31:39.350Z,0
2023-05-19T01:32:55.000Z,0
2023-05-19T01:34:11.740Z,0
2023-05-19T01:35:28.164Z,0
2023-05-19T01:36:44.113Z,0
2023-05-19T01:38:00.538Z,0
2023-05-19T01:39:16.736Z,0
2023-05-19T01:40:32.918Z,0
2023-05-19T01:41:48.125Z,0
2023-05-19T01:43:04.308Z,0
2023-05-19T01:44:20.254Z,0
2023-05-19T01:45:36.691Z,0
2023-05-19T01:46:52.624Z,0
2023-05-19T01:48:09.050Z,0
2023-05-19T01:49:24.985Z,0
2023-05-19T01:50:41.427Z,0
2023-05-19T01:51:57.627Z,0
2023-05-19T01:53:13.798Z,0
2023-05-19T01:54:29.746Z,0
2023-05-19T01:55:46.187Z,0
2023-05-19T01:57:02.121Z,0
2023-05-19T01:58:17.322Z,0
2023-05-19T01:59:33.748Z,0
2023-05-19T02:00:49.694Z,0
2023-05-19T02:02:05.885Z,0
2023-05-19T02:03:22.311Z,0
2023-05-19T02:04:38.241Z,0
2023-05-19T02:05:54.692Z,0
2023-05-19T02:07:10.886Z,0
2023-05-19T02:08:27.061Z,0
2023-05-19T02:09:43.251Z,0
2023-05-19T02:10:59.175Z,0
2023-05-19T02:12:15.368Z,0
2023-05-19T02:13:31.813Z,0
2023-05-19T02:14:47.021Z,0
2023-05-19T02:16:03.198Z,0
2023-05-19T02:17:19.391Z,0
2023-05-19T02:18:35.575Z,0
2023-05-19T02:19:51.774Z,0
2023-05-19T02:21:07.956Z,0
2023-05-19T02:22:23.884Z,0
2023-05-19T02:23:40.074Z,0
2023-05-19T02:24:56.521Z,0
2023-05-19T02:26:12.712Z,0
2023-05-19T02:27:28.623Z,0
2023-05-19T02:28:45.067Z,0
2023-05-19T02:30:01.016Z,0
2023-05-19T02:31:16.463Z,0
2023-05-19T02:32:32.663Z,0
2023-05-19T02:33:48.842Z,0
2023-05-19T02:35:04.766Z,0
2023-05-19T02:36:20.961Z,0
2023-05-19T02:37:37.151Z,0
2023-05-19T02:38:53.584Z,0
2023-05-19T02:40:09.521Z,4
2023-05-19T02:41:25.970Z,4
2023-05-19T02:42:42.154Z,4
2023-05-19T02:43:58.066Z,0
2023-05-19T02:45:14.253Z,4
2023-05-19T02:46:30.708Z,4
2023-05-19T02:47:46.753Z,8
2023-05-19T02:49:03.214Z,4
2023-05-19T02:50:19.141Z,8
2023-05-19T02:51:35.581Z,8
2023-05-19T02:52:51.762Z,12
2023-05-19T02:54:07.963Z,8
2023-05-19T02:55:24.152Z,12
2023-05-19T02:56:40.322Z,12
2023-05-19T02:57:56.246Z,16
2023-05-19T02:59:12.448Z,20
2023-05-19T03:00:28.883Z,24
2023-05-19T03:01:45.087Z,28
2023-05-19T03:03:01.272Z,32
2023-05-19T03:04:16.468Z,36
2023-05-19T03:05:32.387Z,36
2023-05-19T03:06:48.839Z,40
2023-05-19T03:08:05.038Z,44
2023-05-19T03:09:20.961Z,48
2023-05-19T03:10:37.407Z,52
2023-05-19T03:11:52.608Z,56
2023-05-19T03:13:08.799Z,60
2023-05-19T03:14:24.711Z,64
2023-05-19T03:15:41.179Z,68
2023-05-19T03:16:57.372Z,72
2023-05-19T03:18:13.540Z,76
2023-05-19T03:19:29.729Z,84
2023-05-19T03:20:45.661Z,88
2023-05-19T03:22:02.115Z,96
2023-05-19T03:23:18.024Z,104
2023-05-19T03:24:34.489Z,108
2023-05-19T03:25:50.395Z,112
2023-05-19T03:27:06.581Z,116
2023-05-19T03:28:21.790Z,124
2023-05-19T03:29:37.984Z,136
2023-05-19T03:30:54.433Z,148
2023-05-19T03:32:10.623Z,156
2023-05-19T03:33:26.534Z,172
2023-05-19T03:34:42.726Z,188
2023-05-19T03:35:59.176Z,208
2023-05-19T03:37:15.376Z,224
2023-05-19T03:38:31.564Z,240
2023-05-19T03:39:47.746Z,264
2023-05-19T03:41:03.656Z,284
2023-05-19T03:42:19.850Z,304
2023-05-19T03:43:36.029Z,324
2023-05-19T03:44:51.515Z,348
2023-05-19T03:46:07.690Z,364
2023-05-19T03:47:23.883Z,380
2023-05-19T03:48:39.791Z,400
2023-05-19T03:49:55.981Z,420
2023-05-19T03:51:12.163Z,440
2023-05-19T03:52:28.353Z,460
2023-05-19T03:53:44.817Z,480
2023-05-19T03:55:01.015Z,496
2023-05-19T03:56:17.199Z,516
2023-05-19T03:57:33.374Z,532
2023-05-19T03:58:49.294Z,548
2023-05-19T04:00:05.762Z,560
2023-05-19T04:01:21.936Z,572
2023-05-19T04:02:37.155Z,588
2023-05-19T04:03:53.324Z,596
2023-05-19T04:05:09.251Z,604
2023-05-19T04:06:25.429Z,616
2023-05-19T04:07:41.885Z,640
2023-05-19T04:08:58.092Z,660
2023-05-19T04:10:14.261Z,668
2023-05-19T04:11:30.168Z,680
2023-05-19T04:12:46.650Z,688
2023-05-19T04:14:02.558Z,700
2023-05-19T04:15:18.747Z,704
2023-05-19T04:16:35.212Z,716
2023-05-19T04:17:51.119Z,728
2023-05-19T04:19:06.587Z,736
2023-05-19T04:20:22.777Z,740
2023-05-19T04:21:38.964Z,744
2023-05-19T04:22:55.153Z,748
2023-05-19T04:24:11.350Z,752
2023-05-19T04:25:27.532Z,756
2023-05-19T04:26:43.447Z,756
2023-05-19T04:27:59.896Z,756
2023-05-19T04:29:15.801Z,756
2023-05-19T04:30:32.006Z,760
2023-05-19T04:31:48.477Z,764
2023-05-19T04:33:04.655Z,776
2023-05-19T04:34:20.842Z,784
2023-05-19T04:35:37.022Z,780
2023-05-19T04:36:52.230Z,772
2023-05-19T04:38:08.426Z,772
2023-05-19T04:39:24.318Z,756
2023-05-19T04:40:40.796Z,744
2023-05-19T04:41:56.700Z,740
2023-05-19T04:43:12.876Z,744
2023-05-19T04:44:29.077Z,748
2023-05-19T04:45:45.541Z,748
2023-05-19T04:47:01.719Z,752
2023-05-19T04:48:17.906Z,752
2023-05-19T04:49:34.103Z,760
2023-05-19T04:50:50.286Z,772
2023-05-19T04:52:06.190Z,772
2023-05-19T04:53:21.688Z,792
2023-05-19T04:54:37.876Z,800
2023-05-19T04:55:53.774Z,800
2023-05-19T04:57:10.241Z,804
2023-05-19T04:58:26.433Z,804
2023-05-19T04:59:42.610Z,816
2023-05-19T05:00:58.805Z,832
2023-05-19T05:02:14.982Z,836
2023-05-19T05:03:31.168Z,840
2023-05-19T05:04:47.078Z,848
2023-05-19T05:06:03.544Z,868
2023-05-19T05:07:19.733Z,896
2023-05-19T05:08:35.645Z,908
2023-05-19T05:09:51.132Z,928
2023-05-19T05:11:07.325Z,944
2023-05-19T05:12:23.507Z,948
2023-05-19T05:13:39.689Z,932
2023-05-19T05:14:55.593Z,960
2023-05-19T05:16:12.073Z,992
2023-05-19T05:17:28.000Z,1012
2023-05-19T05:18:44.444Z,1044
2023-05-19T05:20:00.334Z,1056
2023-05-19T05:21:16.524Z,1080
2023-05-19T05:22:32.710Z,1088
2023-05-19T05:23:49.179Z,1100
2023-05-19T05:25:05.365Z,1000
2023-05-19T05:26:20.567Z,1024
2023-05-19T05:27:36.765Z,996
2023-05-19T05:28:52.943Z,1052
2023-05-19T05:30:08.854Z,1072
2023-05-19T05:31:25.320Z,1072
2023-05-19T05:32:41.521Z,1116
2023-05-19T05:33:57.402Z,1092
2023-05-19T05:35:13.596Z,1140
2023-05-19T05:36:30.091Z,1224
2023-05-19T05:37:45.970Z,1276
2023-05-19T05:39:02.449Z,1344
2023-05-19T05:40:18.351Z,1420
2023-05-19T05:41:34.829Z,1412
2023-05-19T05:42:50.037Z,1364
2023-05-19T05:44:06.232Z,1328
2023-05-19T05:45:22.111Z,1332
2023-05-19T05:46:38.306Z,1364
2023-05-19T05:47:54.786Z,1216
2023-05-19T05:49:10.984Z,1172
2023-05-19T05:50:26.870Z,1144
2023-05-19T05:51:43.352Z,1152
2023-05-19T05:52:59.255Z,1164
2023-05-19T05:54:15.431Z,1260
2023-05-19T05:55:31.629Z,1140
2023-05-19T05:56:48.113Z,1004
2023-05-19T05:58:04.011Z,1020
2023-05-19T05:59:19.518Z,996
2023-05-19T06:00:35.406Z,1032
2023-05-19T06:01:51.885Z,1240
2023-05-19T06:03:08.081Z,1196
2023-05-19T06:04:24.254Z,1188
2023-05-19T06:05:40.156Z,1320
2023-05-19T06:06:56.639Z,1360
2023-05-19T06:08:12.520Z,1400
2023-05-19T06:09:29.018Z,1368
2023-05-19T06:10:45.196Z,1340
2023-05-19T06:12:01.097Z,1292
2023-05-19T06:13:17.577Z,1308
2023-05-19T06:14:33.000Z,1344
2023-05-19T06:15:48.684Z,1368
2023-05-19T06:17:05.169Z,1368
2023-05-19T06:18:21.357Z,1356
2023-05-19T06:19:37.541Z,1380
2023-05-19T06:20:53.429Z,1408
2023-05-19T06:22:09.608Z,1432
2023-05-19T06:23:25.811Z,1436
2023-05-19T06:24:41.984Z,1412
2023-05-19T06:25:58.175Z,1360
2023-05-19T06:27:14.682Z,1316
2023-05-19T06:28:30.872Z,1288
2023-05-19T06:29:47.049Z,1224
2023-05-19T06:31:03.250Z,1240
2023-05-19T06:32:18.139Z,1256
2023-05-19T06:33:34.628Z,1284
2023-05-19T06:34:50.833Z,1320
2023-05-19T06:36:07.020Z,1380
2023-05-19T06:37:22.898Z,1436
2023-05-19T06:38:39.076Z,1416
2023-05-19T06:39:55.583Z,1344
2023-05-19T06:41:11.761Z,1276
2023-05-19T06:42:27.950Z,1216
2023-05-19T06:43:43.830Z,1184
2023-05-19T06:45:00.339Z,1212
2023-05-19T06:46:16.214Z,1232
2023-05-19T06:47:32.705Z,1248
2023-05-19T06:48:47.617Z,1224
2023-05-19T06:50:04.102Z,1180
2023-05-19T06:51:19.990Z,1140
2023-05-19T06:52:36.493Z,1268
2023-05-19T06:53:52.361Z,1204
2023-05-19T06:55:08.864Z,1216
2023-05-19T06:56:25.044Z,1160
2023-05-19T06:57:41.247Z,1140
2023-05-19T06:58:57.431Z,1116
2023-05-19T07:00:13.311Z,1104
2023-05-19T07:01:29.492Z,1116
2023-05-19T07:02:45.675Z,1168
2023-05-19T07:04:02.184Z,1160
2023-05-19T07:05:17.394Z,1188
2023-05-19T07:06:33.274Z,1148
2023-05-19T07:07:49.759Z,1176
2023-05-19T07:09:05.650Z,1132
2023-05-19T07:10:22.138Z,1124
2023-05-19T07:11:38.341Z,1256
2023-05-19T07:12:54.523Z,1364
2023-05-19T07:14:10.393Z,1564
2023-05-19T07:15:26.583Z,1748
2023-05-19T07:16:42.784Z,1752
2023-05-19T07:17:58.963Z,1892
2023-05-19T07:19:15.152Z,1916
2023-05-19T07:20:31.650Z,1836
2023-05-19T07:21:46.870Z,1776
2023-05-19T07:23:03.057Z,1768
2023-05-19T07:24:18.925Z,1840
2023-05-19T07:25:35.420Z,1800
2023-05-19T07:26:50.313Z,1720
2023-05-19T07:28:06.503Z,1708
2023-05-19T07:29:23.018Z,1760
2023-05-19T07:30:39.211Z,1740
2023-05-19T07:31:55.084Z,1772
2023-05-19T07:33:11.590Z,1664
2023-05-19T07:34:27.767Z,1596
2023-05-19T07:35:43.631Z,1480
2023-05-19T07:37:00.148Z,1400
2023-05-19T07:38:16.327Z,1372
2023-05-19T07:39:32.211Z,1380
2023-05-19T07:40:48.397Z,1396
2023-05-19T07:42:04.908Z,1396
2023-05-19T07:43:20.112Z,1400
2023-05-19T07:44:36.298Z,1408
2023-05-19T07:45:52.172Z,1416
2023-05-19T07:47:08.348Z,1416
2023-05-19T07:48:24.866Z,1420
2023-05-19T07:49:41.050Z,1420
2023-05-19T07:50:57.242Z,1424
2023-05-19T07:52:13.120Z,1424
2023-05-19T07:53:29.292Z,1428
2023-05-19T07:54:45.489Z,1428
2023-05-19T07:56:01.993Z,1432
2023-05-19T07:57:18.181Z,1448
2023-05-19T07:58:34.369Z,1460
2023-05-19T07:59:49.257Z,1456
2023-05-19T08:01:05.773Z,1452
2023-05-19T08:02:21.648Z,1452
2023-05-19T08:03:38.141Z,1452
2023-05-19T08:04:54.335Z,1444
2023-05-19T08:06:10.201Z,1448
2023-05-19T08:07:26.715Z,1464
2023-05-19T08:08:42.895Z,1464
2023-05-19T08:09:58.768Z,1468
2023-05-19T08:11:15.281Z,1488
2023-05-19T08:12:31.466Z,1528
2023-05-19T08:13:47.667Z,1564
2023-05-19T08:15:03.841Z,1620
2023-05-19T08:16:19.058Z,1660
2023-05-19T08:17:34.909Z,1700
2023-05-19T08:18:51.099Z,1724
2023-05-19T08:20:07.627Z,1732
2023-05-19T08:21:23.490Z,1744
2023-05-19T08:22:39.999Z,1776
2023-05-19T08:23:55.863Z,1840
2023-05-19T08:25:12.050Z,1880
2023-05-19T08:26:28.234Z,1888
2023-05-19T08:27:44.747Z,1928
2023-05-19T08:29:00.940Z,1952
2023-05-19T08:30:17.134Z,2172
2023-05-19T08:31:32.991Z,2272
2023-05-19T08:32:48.202Z,2260
2023-05-19T08:34:04.714Z,2452
2023-05-19T08:35:20.568Z,2636
2023-05-19T08:36:37.093Z,2592
2023-05-19T08:37:52.962Z,2780
2023-05-19T08:39:09.473Z,2952
2023-05-19T08:40:25.325Z,3000
2023-05-19T08:41:41.848Z,3424
2023-05-19T08:42:58.044Z,3404
2023-05-19T08:44:13.896Z,3332
2023-05-19T08:45:30.091Z,3084
2023-05-19T08:46:46.600Z,3872
2023-05-19T08:48:02.465Z,3972
2023-05-19T08:49:17.993Z,4448
2023-05-19T08:50:33.859Z,4704
2023-05-19T08:51:50.036Z,4472
2023-05-19T08:53:06.237Z,4732
2023-05-19T08:54:22.755Z,4360
2023-05-19T08:55:38.611Z,4352
2023-05-19T08:56:54.787Z,4020
2023-05-19T08:58:11.320Z,3040
2023-05-19T08:59:27.507Z,3200
2023-05-19T09:00:43.364Z,3848
2023-05-19T09:01:59.889Z,3180
2023-05-19T09:03:15.744Z,2532
2023-05-19T09:04:31.931Z,3284
2023-05-19T09:05:47.133Z,4008
2023-05-19T09:07:03.318Z,3812
2023-05-19T09:08:19.501Z,4696
2023-05-19T09:09:35.695Z,3676
2023-05-19T09:10:51.879Z,3328
2023-05-19T09:12:08.415Z,3916
2023-05-19T09:13:24.607Z,3984
2023-05-19T09:14:40.791Z,3244
2023-05-19T09:15:56.643Z,2928
2023-05-19T09:17:12.823Z,3572
2023-05-19T09:18:29.031Z,4308
2023-05-19T09:19:45.214Z,5292
2023-05-19T09:21:01.724Z,5240
2023-05-19T09:22:16.598Z,5212
2023-05-19T09:23:32.795Z,3696
2023-05-19T09:24:49.306Z,3796
2023-05-19T09:26:05.168Z,4172
2023-05-19T09:27:21.692Z,3548
2023-05-19T09:28:37.890Z,2660
2023-05-19T09:29:53.727Z,2320
2023-05-19T09:31:09.918Z,2376
2023-05-19T09:32:26.111Z,2792
2023-05-19T09:33:42.293Z,2756
2023-05-19T09:34:58.485Z,3036
2023-05-19T09:36:15.020Z,3844
2023-05-19T09:37:31.213Z,3396
2023-05-19T09:38:46.073Z,2924
2023-05-19T09:40:02.259Z,2804
2023-05-19T09:41:18.442Z,3124
2023-05-19T09:42:34.644Z,3060
2023-05-19T09:43:51.168Z,3012
2023-05-19T09:45:07.346Z,3188
2023-05-19T09:46:23.544Z,3820
2023-05-19T09:47:39.393Z,4724
2023-05-19T09:48:55.576Z,5092
2023-05-19T09:50:12.100Z,5008
2023-05-19T09:51:28.290Z,5160
2023-05-19T09:52:44.485Z,5612
2023-05-19T09:54:00.679Z,5504
2023-05-19T09:55:15.888Z,5116
2023-05-19T09:56:31.718Z,5532
2023-05-19T09:57:47.904Z,6328
2023-05-19T09:59:04.445Z,5816
2023-05-19T10:00:20.302Z,6328
2023-05-19T10:01:36.833Z,6072
2023-05-19T10:02:53.016Z,6292
2023-05-19T10:04:08.861Z,6072
2023-05-19T10:05:25.393Z,7148
2023-05-19T10:06:41.237Z,7068
2023-05-19T10:07:57.429Z,6796
2023-05-19T10:09:13.948Z,6824
2023-05-19T10:10:29.796Z,6592
2023-05-19T10:11:45.009Z,5912
2023-05-19T10:13:01.184Z,6512
2023-05-19T10:14:17.735Z,6632
2023-05-19T10:15:33.914Z,6872
2023-05-19T10:16:49.757Z,6976
2023-05-19T10:18:05.957Z,7124
2023-05-19T10:19:22.144Z,8208
2023-05-19T10:20:38.333Z,7596
2023-05-19T10:21:54.854Z,6888
2023-05-19T10:23:11.057Z,6612
2023-05-19T10:24:27.248Z,6212
2023-05-19T10:25:43.075Z,7624
2023-05-19T10:26:59.265Z,8384
2023-05-19T10:28:14.471Z,7316
2023-05-19T10:29:31.018Z,6176
2023-05-19T10:30:47.196Z,6036
2023-05-19T10:32:03.048Z,7500
2023-05-19T10:33:19.224Z,8888
2023-05-19T10:34:35.423Z,8996
2023-05-19T10:35:51.959Z,9416
2023-05-19T10:37:07.798Z,8676
2023-05-19T10:38:23.981Z,6244
2023-05-19T10:39:40.515Z,3984
2023-05-19T10:40:56.718Z,2808
2023-05-19T10:42:12.546Z,2444
2023-05-19T10:43:29.098Z,2344
2023-05-19T10:44:44.304Z,2964
2023-05-19T10:46:00.126Z,3616
2023-05-19T10:47:16.681Z,5492
2023-05-19T10:48:32.508Z,8764
2023-05-19T10:49:48.705Z,10700
2023-05-19T10:51:04.892Z,10744
2023-05-19T10:52:21.439Z,9356
2023-05-19T10:53:37.624Z,8660
2023-05-19T10:54:53.442Z,9556
2023-05-19T10:56:09.989Z,9792
2023-05-19T10:57:25.840Z,9360
2023-05-19T10:58:42.024Z,10304
2023-05-19T10:59:58.571Z,10360
2023-05-19T11:01:13.406Z,7636
2023-05-19T11:02:29.602Z,5136
2023-05-19T11:03:45.794Z,3904
2023-05-19T11:05:01.974Z,3776
2023-05-19T11:06:18.524Z,4980
2023-05-19T11:07:34.366Z,6536
2023-05-19T11:08:50.924Z,8112
2023-05-19T11:10:06.730Z,9464
2023-05-19T11:11:22.924Z,7952
2023-05-19T11:12:39.112Z,6568
2023-05-19T11:13:55.660Z,6632
2023-05-19T11:15:11.847Z,8572
2023-05-19T11:16:27.668Z,10640
2023-05-19T11:17:43.234Z,12384
2023-05-19T11:18:59.425Z,13232
2023-05-19T11:20:15.264Z,13124
2023-05-19T11:21:31.000Z,12956
2023-05-19T11:22:48.003Z,13232
2023-05-19T11:24:03.827Z,13476
2023-05-19T11:25:20.374Z,12448
2023-05-19T11:26:36.197Z,10676
2023-05-19T11:27:52.390Z,9276
2023-05-19T11:29:08.590Z,8188
2023-05-19T11:30:24.764Z,8004
2023-05-19T11:31:41.308Z,8592
2023-05-19T11:32:57.512Z,7632
2023-05-19T11:34:13.814Z,5692
2023-05-19T11:35:29.641Z,4660
2023-05-19T11:36:45.841Z,4620
2023-05-19T11:38:02.390Z,5860
2023-05-19T11:39:18.211Z,5556
2023-05-19T11:40:34.393Z,5500
2023-05-19T11:41:49.603Z,6584
2023-05-19T11:43:06.066Z,7468
2023-05-19T11:44:22.347Z,7148
2023-05-19T11:45:38.546Z,7132
2023-05-19T11:46:54.734Z,7676
2023-05-19T11:48:10.908Z,7140
2023-05-19T11:49:27.013Z,7936
2023-05-19T11:50:43.199Z,10696
2023-05-19T11:51:59.375Z,12788
2023-05-19T11:53:15.681Z,12152
2023-05-19T11:54:31.751Z,11324
2023-05-19T11:55:48.058Z,8552
2023-05-19T11:57:04.238Z,6308
2023-05-19T11:58:19.347Z,5348
2023-05-19T11:59:35.521Z,5076
2023-05-19T12:00:51.821Z,5072
2023-05-19T12:02:07.907Z,7128
2023-05-19T12:03:24.191Z,8752
2023-05-19T12:04:40.287Z,9252
2023-05-19T12:05:56.469Z,20608
2023-05-19T12:07:12.661Z,23296
2023-05-19T12:08:28.963Z,21536
2023-05-19T12:09:45.139Z,16432
2023-05-19T12:11:01.327Z,12488
2023-05-19T12:12:17.515Z,8536
2023-05-19T12:13:33.600Z,6480
2023-05-19T12:14:48.805Z,4844
2023-05-19T12:16:05.104Z,4140
2023-05-19T12:17:21.187Z,3796
2023-05-19T12:18:37.380Z,4476
2023-05-19T12:19:53.556Z,8728
2023-05-19T12:21:09.742Z,27840
2023-05-19T12:22:26.056Z,22592
2023-05-19T12:23:42.136Z,6288
2023-05-19T12:24:58.318Z,3972
2023-05-19T12:26:14.514Z,2936
2023-05-19T12:27:30.685Z,2324
2023-05-19T12:28:46.882Z,2312
2023-05-19T12:30:03.082Z,2644
2023-05-19T12:31:18.297Z,2916
2023-05-19T12:32:34.469Z,2788
2023-05-19T12:33:50.648Z,3064
2023-05-19T12:35:06.854Z,7396
2023-05-19T12:36:23.025Z,4608
2023-05-19T12:37:39.231Z,4136
2023-05-19T12:38:55.427Z,3740
2023-05-19T12:40:11.608Z,3540
2023-05-19T12:41:27.802Z,3808
2023-05-19T12:42:43.981Z,5072
2023-05-19T12:44:00.169Z,7028
2023-05-19T12:45:16.343Z,12608
2023-05-19T12:46:32.548Z,62880
2023-05-19T12:47:47.773Z,75232
2023-05-19T12:49:03.960Z,75136
2023-05-19T12:50:20.138Z,76352
2023-05-19T12:51:36.320Z,60832
2023-05-19T12:52:52.498Z,16464
2023-05-19T12:54:08.718Z,6344
2023-05-19T12:55:24.880Z,4652
2023-05-19T12:56:41.080Z,3696
2023-05-19T12:57:57.267Z,3340
2023-05-19T12:59:13.436Z,3096
2023-05-19T13:00:29.655Z,3204
2023-05-19T13:01:45.847Z,3680
2023-05-19T13:03:02.022Z,5060
2023-05-19T13:04:17.229Z,6444
2023-05-19T13:05:33.413Z,7188
2023-05-19T13:06:49.592Z,6280
2023-05-19T13:08:05.791Z,5168
2023-05-19T13:09:21.968Z,4488
2023-05-19T13:10:38.154Z,4660
2023-05-19T13:11:54.366Z,5904
2023-05-19T13:13:10.563Z,10464
2023-05-19T13:14:26.737Z,29760
2023-05-19T13:15:42.924Z,12840
2023-05-19T13:16:59.120Z,14308
2023-05-19T13:18:15.281Z,22624
2023-05-19T13:19:31.482Z,51328
2023-05-19T13:20:46.697Z,29408
2023-05-19T13:22:02.880Z,19560
2023-05-19T13:23:19.054Z,16888
2023-05-19T13:24:35.274Z,13572
2023-05-19T13:25:51.444Z,14416
2023-05-19T13:27:07.653Z,49120
2023-05-19T13:28:23.818Z,64896
2023-05-19T13:29:40.014Z,20928
2023-05-19T13:30:56.190Z,39008
2023-05-19T13:32:12.377Z,37920
2023-05-19T13:33:28.567Z,10776
2023-05-19T13:34:44.000Z,14992
2023-05-19T13:36:00.947Z,34016
2023-05-19T13:37:16.152Z,42144
2023-05-19T13:38:32.339Z,27840
2023-05-19T13:39:48.559Z,13320
2023-05-19T13:41:04.723Z,7684
2023-05-19T13:42:20.916Z,6064
2023-05-19T13:43:37.104Z,6544
2023-05-19T13:44:53.286Z,6324
2023-05-19T13:46:09.477Z,6768
2023-05-19T13:47:25.655Z,8208
2023-05-19T13:48:41.842Z,15136
2023-05-19T13:49:58.069Z,10796
2023-05-19T13:51:14.227Z,25408
2023-05-19T13:52:30.412Z,24064
2023-05-19T13:53:45.618Z,11748
2023-05-19T13:55:01.848Z,3552
2023-05-19T13:56:18.026Z,2828
2023-05-19T13:57:34.214Z,4052
2023-05-19T13:58:50.376Z,6024
2023-05-19T14:00:06.566Z,9092
2023-05-19T14:01:22.749Z,14404
2023-05-19T14:02:38.972Z,8884
2023-05-19T14:03:55.138Z,8148
2023-05-19T14:05:11.358Z,21728
2023-05-19T14:06:27.512Z,11260
2023-05-19T14:07:43.734Z,11728
2023-05-19T14:08:59.917Z,14668
2023-05-19T14:10:15.133Z,22784
2023-05-19T14:11:31.290Z,24640
2023-05-19T14:12:47.470Z,17548
2023-05-19T14:14:03.663Z,18552
2023-05-19T14:15:19.840Z,22272
2023-05-19T14:16:36.041Z,13760
2023-05-19T14:17:52.222Z,12516
2023-05-19T14:19:08.420Z,9716
2023-05-19T14:20:24.607Z,8712
2023-05-19T14:21:40.798Z,9528
2023-05-19T14:22:56.976Z,12088
2023-05-19T14:24:13.170Z,11152
2023-05-19T14:25:29.397Z,10220
2023-05-19T14:26:44.555Z,7476
2023-05-19T14:28:00.787Z,6336
2023-05-19T14:29:16.949Z,7040
2023-05-19T14:30:33.118Z,7968
2023-05-19T14:31:49.349Z,6384
2023-05-19T14:33:05.494Z,5424
2023-05-19T14:34:21.736Z,5532
2023-05-19T14:35:37.925Z,5432
2023-05-19T14:36:54.108Z,5372
2023-05-19T14:38:10.305Z,5380
2023-05-19T14:39:26.455Z,7420
2023-05-19T14:40:42.643Z,5972
2023-05-19T14:41:58.866Z,5384
2023-05-19T14:43:14.072Z,5980
2023-05-19T14:44:30.239Z,7092
2023-05-19T14:45:46.436Z,9260
2023-05-19T14:47:02.586Z,11132
2023-05-19T14:48:18.783Z,8888
2023-05-19T14:49:35.018Z,8896
2023-05-19T14:50:51.208Z,9624
2023-05-19T14:52:07.340Z,10500
2023-05-19T14:53:23.544Z,7144
2023-05-19T14:54:39.774Z,7140
2023-05-19T14:55:55.925Z,5984
2023-05-19T14:57:12.140Z,5840
2023-05-19T14:58:28.344Z,5572
2023-05-19T14:59:43.548Z,4792
2023-05-19T15:00:59.678Z,4272
2023-05-19T15:02:15.877Z,4240
2023-05-19T15:03:32.101Z,4084
2023-05-19T15:04:48.259Z,4244
2023-05-19T15:06:04.429Z,4680
2023-05-19T15:07:20.636Z,5076
2023-05-19T15:08:36.810Z,7344
2023-05-19T15:09:53.039Z,5200
2023-05-19T15:11:09.239Z,4708
2023-05-19T15:12:25.373Z,4160
2023-05-19T15:13:41.569Z,3664
2023-05-19T15:14:57.754Z,3316
2023-05-19T15:16:12.947Z,3120
2023-05-19T15:17:29.137Z,3964
2023-05-19T15:18:45.330Z,6152
2023-05-19T15:20:01.516Z,6968
2023-05-19T15:21:17.701Z,3592
2023-05-19T15:22:33.940Z,3148
2023-05-19T15:23:50.081Z,3116
2023-05-19T15:25:06.253Z,3176
2023-05-19T15:26:22.494Z,3084
2023-05-19T15:27:38.638Z,3004
2023-05-19T15:28:54.859Z,3576
2023-05-19T15:30:11.016Z,4692
2023-05-19T15:31:27.204Z,6496
2023-05-19T15:32:42.401Z,6928
2023-05-19T15:33:58.628Z,4684
2023-05-19T15:35:14.810Z,3016
2023-05-19T15:36:30.954Z,2868
2023-05-19T15:37:47.150Z,3356
2023-05-19T15:39:03.330Z,3580
2023-05-19T15:40:19.528Z,4620
2023-05-19T15:41:35.715Z,4204
2023-05-19T15:44:08.125Z,2360
2023-05-19T15:45:24.316Z,1976
2023-05-19T15:46:40.454Z,1988
2023-05-19T15:47:56.683Z,2136
2023-05-19T15:49:11.852Z,2276
2023-05-19T15:50:28.079Z,2320
2023-05-19T15:51:44.264Z,2364
2023-05-19T15:53:00.408Z,2556
2023-05-19T15:54:16.588Z,2752
2023-05-19T15:55:32.771Z,2380
2023-05-19T15:56:48.046Z,2504
2023-05-19T15:58:04.235Z,2476
2023-05-19T15:59:20.358Z,2336
2023-05-19T16:00:36.609Z,2916
2023-05-19T16:01:52.728Z,2984
2023-05-19T16:03:08.924Z,2896
2023-05-19T16:04:25.164Z,2636
2023-05-19T16:05:41.288Z,2296
2023-05-19T16:06:57.538Z,2660
2023-05-19T16:08:13.666Z,3656
2023-05-19T16:09:29.857Z,3732
2023-05-19T16:10:46.098Z,3504
2023-05-19T16:12:02.288Z,3484
2023-05-19T16:13:17.486Z,3256
2023-05-19T16:14:33.670Z,3160
2023-05-19T16:15:49.799Z,3352
2023-05-19T16:17:06.005Z,3376
2023-05-19T16:18:22.183Z,3544
2023-05-19T16:19:38.416Z,3456
2023-05-19T16:20:54.563Z,3232
2023-05-19T16:22:10.792Z,3040
2023-05-19T16:23:26.979Z,3060
2023-05-19T16:24:43.124Z,2880
2023-05-19T16:25:59.351Z,2732
2023-05-19T16:27:15.555Z,2712
2023-05-19T16:28:31.676Z,2592
2023-05-19T16:29:46.873Z,2540
2023-05-19T16:31:03.061Z,2548
2023-05-19T16:32:19.265Z,2636
2023-05-19T16:33:35.439Z,2764
2023-05-19T16:34:51.692Z,2760
2023-05-19T16:36:07.875Z,2776
2023-05-19T16:37:24.063Z,2696
2023-05-19T16:38:40.249Z,2608
2023-05-19T16:39:56.380Z,2688
2023-05-19T16:41:12.571Z,2836
2023-05-19T16:42:28.747Z,2788
2023-05-19T16:43:44.948Z,2436
2023-05-19T16:45:01.183Z,2248
2023-05-19T16:46:16.332Z,2164
2023-05-19T16:47:32.519Z,2080
2023-05-19T16:48:48.764Z,2028
2023-05-19T16:50:04.955Z,1972
2023-05-19T16:51:21.079Z,1920
2023-05-19T16:52:37.264Z,1904
2023-05-19T16:53:53.454Z,1868
2023-05-19T16:55:09.635Z,1732
2023-05-19T16:56:25.822Z,1628
2023-05-19T16:57:42.065Z,1540
2023-05-19T16:58:58.201Z,1480
2023-05-19T17:00:14.439Z,1428
2023-05-19T17:01:30.568Z,1460
2023-05-19T17:02:45.786Z,1592
2023-05-19T17:04:02.027Z,1724
2023-05-19T17:05:18.223Z,1716
2023-05-19T17:06:34.335Z,1704
2023-05-19T17:07:50.529Z,1704
2023-05-19T17:09:06.717Z,1652
2023-05-19T17:10:22.960Z,1568
2023-05-19T17:11:39.092Z,1432
2023-05-19T17:12:55.329Z,1396
2023-05-19T17:14:11.527Z,1488